Time;durP1;ratioP1;P1;durP2;ratioP2;P2;SDS_P1;SDS_P2;PMS_P1;PMS_P2;Temp;Humidity;BMP_temperature;BMP_pressure;BME280_temperature;BME280_humidity;BME280_pressure;Samples;Min_cycle;Max_cycle;Signal;HPM_P1;HPM_P2
2023/03/11 00:02:03;;;;;;;;;;;;;;;;;;5093443;28;19995;-72
2023/03/11 00:04:29;;;;;;;;;;;;;;;;;;5093630;28;20130;-73
2023/03/11 00:06:55;;;;;;;;;;;;;;;;;;5094543;28;19951;-72
2023/03/11 00:09:21;;;;;;;;;;;;;;;;;;5097828;28;19955;-70
2023/03/11 00:11:47;;;;;;;;;;;;;;;;;;5097258;28;19946;-71
2023/03/11 00:14:13;;;;;;;;;;;;;;;;;;5097292;28;20006;-72
2023/03/11 00:16:39;;;;;;;;;;;;;;;;;;5097139;28;20014;-71
2023/03/11 00:19:05;;;;;;;;;;;;;;;;;;5097676;28;19943;-72
2023/03/11 00:21:31;;;;;;;;;;;;;;;;;;5097090;28;19944;-73
2023/03/11 00:23:59;;;;;;;;;;;;;;;;;;5097509;28;19970;-75
2023/03/11 00:26:25;;;;;;;;;;;;;;;;;;5078765;28;20437;-74
2023/03/11 00:28:51;;;;;;;;;;;;;;;;;;5096894;28;19958;-72
2023/03/11 00:31:17;;;;;;;;;;;;;;;;;;5097140;28;20040;-72
2023/03/11 00:33:43;;;;;;;;;;;;;;;;;;5096812;28;20418;-72
2023/03/11 00:36:09;;;;;;;;;;;;;;;;;;5097336;28;19950;-73
2023/03/11 00:38:35;;;;;;;;;;;;;;;;;;5096706;28;20018;-72
2023/03/11 00:41:01;;;;;;;;;;;;;;;;;;5096517;28;19983;-71
2023/03/11 00:43:27;;;;;;;;;;;;;;;;;;5096855;28;19975;-69
2023/03/11 00:45:53;;;;;;;;;;;;;;;;;;5096590;28;20044;-73
2023/03/11 00:48:19;;;;;;;;;;;;;;;;;;5097093;28;19955;-71
2023/03/11 00:50:45;;;;;;;;;;;;;;;;;;5096550;28;19944;-70
2023/03/11 00:53:11;;;;;;;;;;;;;;;;;;5096991;28;20002;-70
2023/03/11 00:55:37;;;;;;;;;;;;;;;;;;5078203;28;19962;-71
2023/03/11 00:58:03;;;;;;;;;;;;;;;;;;5096326;28;20042;-71
2023/03/11 01:00:31;;;;;;;;;;;;;;;;;;5096292;28;19951;-72
2023/03/11 01:02:57;;;;;;;;;;;;;;;;;;5096465;28;19955;-70
2023/03/11 01:05:23;;;;;;;;;;;;;;;;;;5096202;28;19951;-71
2023/03/11 01:07:49;;;;;;;;;;;;;;;;;;5096165;28;19951;-71
2023/03/11 01:10:15;;;;;;;;;;;;;;;;;;5096157;28;19997;-71
2023/03/11 01:12:42;;;;;;;;;;;;;;;;;;5096117;28;19950;-72
2023/03/11 01:15:08;;;;;;;;;;;;;;;;;;5096073;28;19960;-72
2023/03/11 01:17:36;;;;;;;;;;;;;;;;;;5095861;28;19992;-72
2023/03/11 01:20:05;;;;;;;;;;;;;;;;;;5095193;28;19965;-71
2023/03/11 01:22:31;;;;;;;;;;;;;;;;;;5095899;28;19952;-71
2023/03/11 01:24:57;;;;;;;;;;;;;;;;;;5095834;28;19965;-71
2023/03/11 01:27:22;;;;;;;;;;;;;;;;;;5095825;28;20009;-71
2023/03/11 01:29:48;;;;;;;;;;;;;;;;;;5096041;28;19942;-71
2023/03/11 01:32:14;;;;;;;;;;;;;;;;;;5095676;28;19943;-70
2023/03/11 01:34:40;;;;;;;;;;;;;;;;;;5095654;28;19953;-71
2023/03/11 01:37:06;;;;;;;;;;;;;;;;;;5095910;28;20437;-72
2023/03/11 01:39:32;;;;;;;;;;;;;;;;;;5095481;28;20326;-70
2023/03/11 01:41:58;;;;;;;;;;;;;;;;;;5095883;28;19962;-71
2023/03/11 01:44:24;;;;;;;;;;;;;;;;;;5095333;28;19977;-70
2023/03/11 01:46:50;;;;;;;;;;;;;;;;;;5095461;28;20089;-72
2023/03/11 01:49:16;;;;;;;;;;;;;;;;;;5095418;28;20331;-72
2023/03/11 01:51:41;;;;;;;;;;;;;;;;;;5095914;28;19961;-70
2023/03/11 01:54:09;;;;;;;;;;;;;;;;;;5095255;28;19951;-71
2023/03/11 01:56:35;;;;;;;;;;;;;;;;;;5095543;28;19951;-71
2023/03/11 01:59:01;;;;;;;;;;;;;;;;;;5095191;28;20075;-70
2023/03/11 02:01:27;;;;;;;;;;;;;;;;;;5095776;28;20280;-70
2023/03/11 02:03:52;;;;;;;;;;;;;;;;;;5094993;28;19978;-71
2023/03/11 02:06:18;;;;;;;;;;;;;;;;;;5095612;28;20310;-71
2023/03/11 02:08:44;;;;;;;;;;;;;;;;;;5094970;28;19951;-70
2023/03/11 02:11:10;;;;;;;;;;;;;;;;;;5095220;28;19976;-71
2023/03/11 02:13:36;;;;;;;;;;;;;;;;;;5095028;28;19958;-72
2023/03/11 02:16:02;;;;;;;;;;;;;;;;;;5094870;28;19966;-72
2023/03/11 02:18:28;;;;;;;;;;;;;;;;;;5095346;28;20038;-70
2023/03/11 02:20:54;;;;;;;;;;;;;;;;;;5094759;28;20441;-70
2023/03/11 02:23:20;;;;;;;;;;;;;;;;;;5095222;28;19978;-71
2023/03/11 02:25:46;;;;;;;;;;;;;;;;;;5094675;28;20389;-71
2023/03/11 02:28:11;;;;;;;;;;;;;;;;;;5094935;28;19962;-75
2023/03/11 02:30:37;;;;;;;;;;;;;;;;;;5094462;28;19951;-73
2023/03/11 02:33:03;;;;;;;;;;;;;;;;;;5095267;28;20045;-74
2023/03/11 02:35:30;;;;;;;;;;;;;;;;;;5094574;28;19951;-74
2023/03/11 02:37:56;;;;;;;;;;;;;;;;;;5094772;28;19951;-73
2023/03/11 02:40:22;;;;;;;;;;;;;;;;;;5094231;28;20101;-72
2023/03/11 02:42:48;;;;;;;;;;;;;;;;;;5094350;28;20005;-72
2023/03/11 02:45:13;;;;;;;;;;;;;;;;;;5094357;28;19955;-72
2023/03/11 02:47:39;;;;;;;;;;;;;;;;;;5094354;28;19951;-73
2023/03/11 02:50:05;;;;;;;;;;;;;;;;;;5094511;28;19958;-71
2023/03/11 02:52:31;;;;;;;;;;;;;;;;;;5094263;28;20041;-72
2023/03/11 02:54:57;;;;;;;;;;;;;;;;;;5094186;28;19973;-72
2023/03/11 02:57:23;;;;;;;;;;;;;;;;;;5094146;28;19951;-80
2023/03/11 02:59:50;;;;;;;;;;;;;;;;;;5094121;28;19944;-80
2023/03/11 03:02:16;;;;;;;;;;;;;;;;;;5075684;28;19952;-79
2023/03/11 03:04:42;;;;;;;;;;;;;;;;;;5094224;28;19965;-79
2023/03/11 03:07:08;;;;;;;;;;;;;;;;;;5093995;28;19951;-80
2023/03/11 03:09:33;;;;;;;;;;;;;;;;;;5094271;28;19954;-80
2023/03/11 03:11:59;;;;;;;;;;;;;;;;;;5093928;28;20337;-79
2023/03/11 03:14:25;;;;;;;;;;;;;;;;;;5093845;28;19968;-80
2023/03/11 03:16:51;;;;;;;;;;;;;;;;;;5094181;28;20347;-80
2023/03/11 03:19:17;;;;;;;;;;;;;;;;;;5093889;28;20405;-80
2023/03/11 03:21:43;;;;;;;;;;;;;;;;;;5093829;28;19958;-78
2023/03/11 03:24:09;;;;;;;;;;;;;;;;;;5094381;28;19977;-79
2023/03/11 03:26:35;;;;;;;;;;;;;;;;;;5093800;28;19947;-77
2023/03/11 03:29:01;;;;;;;;;;;;;;;;;;5093807;28;19954;-75
2023/03/11 03:31:26;;;;;;;;;;;;;;;;;;5093766;28;19950;-77
2023/03/11 03:33:52;;;;;;;;;;;;;;;;;;5094280;28;20429;-75
2023/03/11 03:36:18;;;;;;;;;;;;;;;;;;5093719;28;19953;-78
2023/03/11 03:38:44;;;;;;;;;;;;;;;;;;5093739;28;20037;-78
2023/03/11 03:41:10;;;;;;;;;;;;;;;;;;5093522;28;20076;-77
2023/03/11 03:43:36;;;;;;;;;;;;;;;;;;5097407;28;20046;-78
2023/03/11 03:46:02;;;;;;;;;;;;;;;;;;5098045;28;19936;-76
2023/03/11 03:48:28;;;;;;;;;;;;;;;;;;5097712;28;19932;-76
2023/03/11 03:50:54;;;;;;;;;;;;;;;;;;5098224;28;20059;-77
2023/03/11 03:53:20;;;;;;;;;;;;;;;;;;5097593;28;19935;-77
2023/03/11 03:55:45;;;;;;;;;;;;;;;;;;5097597;28;19981;-78
2023/03/11 03:58:11;;;;;;;;;;;;;;;;;;5097793;28;19932;-76
2023/03/11 04:00:38;;;;;;;;;;;;;;;;;;5097428;28;19980;-79
2023/03/11 04:03:04;;;;;;;;;;;;;;;;;;5097937;28;19969;-76
2023/03/11 04:05:30;;;;;;;;;;;;;;;;;;5097436;28;19974;-77
2023/03/11 04:07:56;;;;;;;;;;;;;;;;;;5097630;28;19932;-77
2023/03/11 04:10:22;;;;;;;;;;;;;;;;;;5097340;28;20074;-77
2023/03/11 04:12:47;;;;;;;;;;;;;;;;;;5097813;28;19961;-75
2023/03/11 04:15:13;;;;;;;;;;;;;;;;;;5097132;28;19945;-79
2023/03/11 04:17:39;;;;;;;;;;;;;;;;;;5097177;28;19935;-77
2023/03/11 04:20:09;;;;;;;;;;;;;;;;;;5097420;28;19935;-78
2023/03/11 04:22:35;;;;;;;;;;;;;;;;;;5097381;28;19936;-78
2023/03/11 04:25:01;;;;;;;;;;;;;;;;;;5096950;28;20460;-77
2023/03/11 04:27:27;;;;;;;;;;;;;;;;;;5096965;28;19947;-74
2023/03/11 04:29:52;;;;;;;;;;;;;;;;;;5097198;28;20332;-76
2023/03/11 04:32:18;;;;;;;;;;;;;;;;;;5097025;28;19948;-75
2023/03/11 04:34:44;;;;;;;;;;;;;;;;;;5097233;28;19999;-76
2023/03/11 04:37:10;;;;;;;;;;;;;;;;;;5096798;28;19955;-77
2023/03/11 04:39:36;;;;;;;;;;;;;;;;;;5096796;28;19956;-77
2023/03/11 04:42:02;;;;;;;;;;;;;;;;;;5097497;28;20052;-74
2023/03/11 04:44:28;;;;;;;;;;;;;;;;;;5078961;28;20106;-74
2023/03/11 04:46:54;;;;;;;;;;;;;;;;;;5097761;28;19954;-75
2023/03/11 04:49:20;;;;;;;;;;;;;;;;;;5096673;28;19985;-75
2023/03/11 04:51:45;;;;;;;;;;;;;;;;;;5096818;28;19992;-75
2023/03/11 04:54:11;;;;;;;;;;;;;;;;;;5096127;28;20073;-75
2023/03/11 04:56:37;;;;;;;;;;;;;;;;;;5096415;28;19956;-72
2023/03/11 04:59:03;;;;;;;;;;;;;;;;;;5096917;28;19950;-73
2023/03/11 05:01:29;;;;;;;;;;;;;;;;;;5096587;28;19998;-72
2023/03/11 05:03:55;;;;;;;;;;;;;;;;;;5096297;28;19951;-75
2023/03/11 05:06:21;;;;;;;;;;;;;;;;;;5096794;28;20383;-73
2023/03/11 05:08:47;;;;;;;;;;;;;;;;;;5096461;28;20046;-72
2023/03/11 05:11:13;;;;;;;;;;;;;;;;;;5096161;28;20310;-73
2023/03/11 05:13:38;;;;;;;;;;;;;;;;;;5096286;28;19970;-74
2023/03/11 05:16:04;;;;;;;;;;;;;;;;;;5096025;28;20338;-73
2023/03/11 05:18:31;;;;;;;;;;;;;;;;;;5096015;28;19951;-74
2023/03/11 05:20:57;;;;;;;;;;;;;;;;;;5096275;28;19951;-74
2023/03/11 05:23:23;;;;;;;;;;;;;;;;;;5095879;28;20352;-74
2023/03/11 05:25:49;;;;;;;;;;;;;;;;;;5096417;28;20004;-72
2023/03/11 05:28:15;;;;;;;;;;;;;;;;;;5095817;28;19951;-73
2023/03/11 05:30:41;;;;;;;;;;;;;;;;;;5096298;28;19973;-73
2023/03/11 05:33:06;;;;;;;;;;;;;;;;;;5095660;28;20395;-72
2023/03/11 05:35:32;;;;;;;;;;;;;;;;;;5095948;28;19951;-72
2023/03/11 05:37:58;;;;;;;;;;;;;;;;;;5095643;28;20322;-73
2023/03/11 05:40:24;;;;;;;;;;;;;;;;;;5095389;28;20073;-73
2023/03/11 05:42:50;;;;;;;;;;;;;;;;;;5077387;28;20043;-72
2023/03/11 05:45:16;;;;;;;;;;;;;;;;;;5095465;28;19951;-73
2023/03/11 05:47:42;;;;;;;;;;;;;;;;;;5095716;28;19954;-74
2023/03/11 05:50:09;;;;;;;;;;;;;;;;;;5095366;28;20433;-73
2023/03/11 05:52:35;;;;;;;;;;;;;;;;;;5095949;28;19951;-71
2023/03/11 05:55:01;;;;;;;;;;;;;;;;;;5095195;28;20514;-71
2023/03/11 05:57:27;;;;;;;;;;;;;;;;;;5095517;28;19951;-72
2023/03/11 05:59:53;;;;;;;;;;;;;;;;;;5095224;28;20454;-70
2023/03/11 06:02:19;;;;;;;;;;;;;;;;;;5095405;28;19951;-71
2023/03/11 06:04:45;;;;;;;;;;;;;;;;;;5094737;28;19951;-71
2023/03/11 06:07:13;;;;;;;;;;;;;;;;;;5095046;28;20489;-70
2023/03/11 06:09:39;;;;;;;;;;;;;;;;;;5095254;28;19958;-71
2023/03/11 06:12:05;;;;;;;;;;;;;;;;;;5094929;28;19951;-71
2023/03/11 06:14:34;;;;;;;;;;;;;;;;;;5095060;28;20002;-69
2023/03/11 06:17:00;;;;;;;;;;;;;;;;;;5095175;28;19951;-70
2023/03/11 06:19:25;;;;;;;;;;;;;;;;;;5095076;28;20292;-72
2023/03/11 06:21:51;;;;;;;;;;;;;;;;;;5094774;28;19959;-71
2023/03/11 06:24:17;;;;;;;;;;;;;;;;;;5094736;28;19987;-72
2023/03/11 06:26:43;;;;;;;;;;;;;;;;;;5095251;28;20448;-72
2023/03/11 06:29:09;;;;;;;;;;;;;;;;;;5094607;28;20360;-72
2023/03/11 06:31:35;;;;;;;;;;;;;;;;;;5094867;28;19951;-70
2023/03/11 06:34:01;;;;;;;;;;;;;;;;;;5094466;28;19974;-72
2023/03/11 06:36:27;;;;;;;;;;;;;;;;;;5094546;28;20426;-71
2023/03/11 06:38:53;;;;;;;;;;;;;;;;;;5094747;28;19958;-70
2023/03/11 06:41:19;;;;;;;;;;;;;;;;;;5094240;28;20022;-70
2023/03/11 06:43:45;;;;;;;;;;;;;;;;;;5094342;28;19951;-70
2023/03/11 06:46:11;;;;;;;;;;;;;;;;;;5094355;28;19951;-72
2023/03/11 06:48:37;;;;;;;;;;;;;;;;;;5094520;28;19975;-70
2023/03/11 06:51:03;;;;;;;;;;;;;;;;;;5094263;28;19974;-70
2023/03/11 06:53:29;;;;;;;;;;;;;;;;;;5094787;28;20084;-72
2023/03/11 06:55:54;;;;;;;;;;;;;;;;;;5094145;28;20024;-71
2023/03/11 06:58:20;;;;;;;;;;;;;;;;;;5094444;28;20317;-71
2023/03/11 07:00:46;;;;;;;;;;;;;;;;;;5094127;28;19951;-70
2023/03/11 07:03:12;;;;;;;;;;;;;;;;;;5094015;28;19962;-71
2023/03/11 07:05:38;;;;;;;;;;;;;;;;;;5094632;28;19951;-71
2023/03/11 07:08:04;;;;;;;;;;;;;;;;;;5094024;28;19985;-70
2023/03/11 07:10:30;;;;;;;;;;;;;;;;;;5094292;28;20311;-71
2023/03/11 07:12:56;;;;;;;;;;;;;;;;;;5093997;28;19951;-71
2023/03/11 07:15:21;;;;;;;;;;;;;;;;;;5093842;28;19975;-71
2023/03/11 07:17:47;;;;;;;;;;;;;;;;;;5093926;28;20441;-71
2023/03/11 07:20:13;;;;;;;;;;;;;;;;;;5093873;28;19951;-70
2023/03/11 07:22:39;;;;;;;;;;;;;;;;;;5094400;28;20307;-71
2023/03/11 07:25:05;;;;;;;;;;;;;;;;;;5093727;28;19970;-72
2023/03/11 07:27:31;;;;;;;;;;;;;;;;;;5093787;28;19951;-71
2023/03/11 07:29:57;;;;;;;;;;;;;;;;;;5075630;28;19962;-71
2023/03/11 07:32:23;;;;;;;;;;;;;;;;;;5093754;28;19951;-71
2023/03/11 07:34:49;;;;;;;;;;;;;;;;;;5075635;28;19955;-71
2023/03/11 07:37:14;;;;;;;;;;;;;;;;;;5093710;28;19955;-71
2023/03/11 07:39:40;;;;;;;;;;;;;;;;;;5094052;28;20407;-71
2023/03/11 07:42:06;;;;;;;;;;;;;;;;;;5094252;28;19951;-72
2023/03/11 07:44:32;;;;;;;;;;;;;;;;;;5093844;28;19975;-70
2023/03/11 07:46:58;;;;;;;;;;;;;;;;;;5093624;28;20425;-71
2023/03/11 07:49:24;;;;;;;;;;;;;;;;;;5093618;28;19955;-71
2023/03/11 07:51:50;;;;;;;;;;;;;;;;;;5094126;28;20507;-70
2023/03/11 07:54:16;;;;;;;;;;;;;;;;;;5093568;28;19958;-71
2023/03/11 07:56:42;;;;;;;;;;;;;;;;;;5093784;28;20054;-71
2023/03/11 07:59:07;;;;;;;;;;;;;;;;;;5093495;28;19951;-71
2023/03/11 08:01:39;;;;;;;;;;;;;;;;;;5093758;28;20306;-70
2023/03/11 08:04:05;;;;;;;;;;;;;;;;;;5093396;28;20090;-71
2023/03/11 08:06:31;;;;;;;;;;;;;;;;;;5093704;28;19951;-70
2023/03/11 08:08:57;;;;;;;;;;;;;;;;;;5093386;28;19989;-71
2023/03/11 08:11:23;;;;;;;;;;;;;;;;;;5093944;28;19951;-71
2023/03/11 08:13:49;;;;;;;;;;;;;;;;;;5093286;28;19967;-71
2023/03/11 08:16:14;;;;;;;;;;;;;;;;;;5093347;28;20327;-71
2023/03/11 08:18:40;;;;;;;;;;;;;;;;;;5093329;28;20039;-72
2023/03/11 08:21:06;;;;;;;;;;;;;;;;;;5093603;28;19951;-71
2023/03/11 08:23:32;;;;;;;;;;;;;;;;;;5093180;28;20510;-72
2023/03/11 08:25:58;;;;;;;;;;;;;;;;;;5093559;28;19957;-72
2023/03/11 08:28:24;;;;;;;;;;;;;;;;;;5094839;28;20338;-71
2023/03/11 08:30:50;;;;;;;;;;;;;;;;;;5096975;28;19951;-72
2023/03/11 08:33:16;;;;;;;;;;;;;;;;;;5097228;28;20001;-70
2023/03/11 08:35:41;;;;;;;;;;;;;;;;;;5096844;28;19985;-72
2023/03/11 08:38:07;;;;;;;;;;;;;;;;;;5096815;28;19958;-72
2023/03/11 08:40:33;;;;;;;;;;;;;;;;;;5096540;28;19987;-71
2023/03/11 08:42:59;;;;;;;;;;;;;;;;;;5096712;28;20045;-71
2023/03/11 08:45:25;;;;;;;;;;;;;;;;;;5096612;28;20037;-71
2023/03/11 08:47:53;;;;;;;;;;;;;;;;;;5095853;28;21401;-70
2023/03/11 08:50:19;;;;;;;;;;;;;;;;;;5096608;28;19959;-70
2023/03/11 08:52:45;;;;;;;;;;;;;;;;;;5096844;28;19955;-70
2023/03/11 08:55:11;;;;;;;;;;;;;;;;;;5096541;28;19961;-70
2023/03/11 08:57:37;;;;;;;;;;;;;;;;;;5096732;28;20010;-69
2023/03/11 09:00:03;;;;;;;;;;;;;;;;;;5096421;28;19956;-70
2023/03/11 09:02:29;;;;;;;;;;;;;;;;;;5096906;28;20409;-70
2023/03/11 09:04:55;;;;;;;;;;;;;;;;;;5096240;28;19975;-70
2023/03/11 09:07:21;;;;;;;;;;;;;;;;;;5096784;28;19962;-71
2023/03/11 09:09:48;;;;;;;;;;;;;;;;;;5096209;28;20052;-70
2023/03/11 09:12:14;;;;;;;;;;;;;;;;;;5096515;28;19959;-70
2023/03/11 09:14:40;;;;;;;;;;;;;;;;;;5096044;28;19978;-71
2023/03/11 09:17:06;;;;;;;;;;;;;;;;;;5096617;28;20396;-71
2023/03/11 09:19:31;;;;;;;;;;;;;;;;;;5096329;28;19959;-71
2023/03/11 09:21:57;;;;;;;;;;;;;;;;;;5095949;28;19955;-71
2023/03/11 09:24:23;;;;;;;;;;;;;;;;;;5096446;28;20473;-71
2023/03/11 09:26:49;;;;;;;;;;;;;;;;;;5096159;28;19955;-71
2023/03/11 09:29:15;;;;;;;;;;;;;;;;;;5095825;28;20299;-72
2023/03/11 09:31:41;;;;;;;;;;;;;;;;;;5095667;28;19981;-72
2023/03/11 09:34:07;;;;;;;;;;;;;;;;;;5095666;28;19955;-70
2023/03/11 09:36:33;;;;;;;;;;;;;;;;;;5096151;28;20318;-70
2023/03/11 09:38:59;;;;;;;;;;;;;;;;;;5095044;28;19998;-71
2023/03/11 09:41:24;;;;;;;;;;;;;;;;;;5095013;28;19991;-71
2023/03/11 09:43:50;;;;;;;;;;;;;;;;;;5095511;28;20010;-73
2023/03/11 09:46:16;;;;;;;;;;;;;;;;;;5096053;28;20322;-73
2023/03/11 09:48:42;;;;;;;;;;;;;;;;;;5095705;28;19968;-74
2023/03/11 09:51:08;;;;;;;;;;;;;;;;;;5095331;28;20402;-72
2023/03/11 09:53:34;;;;;;;;;;;;;;;;;;5095106;28;20032;-72
2023/03/11 09:56:00;;;;;;;;;;;;;;;;;;5095282;28;20046;-71
2023/03/11 09:58:26;;;;;;;;;;;;;;;;;;5094899;28;19956;-72
2023/03/11 10:00:52;;;;;;;;;;;;;;;;;;5095436;28;19965;-71
2023/03/11 10:03:18;;;;;;;;;;;;;;;;;;5094976;28;19956;-70
2023/03/11 10:05:44;;;;;;;;;;;;;;;;;;5095097;28;19955;-74
2023/03/11 10:08:10;;;;;;;;;;;;;;;;;;5095123;28;20343;-73
2023/03/11 10:10:36;;;;;;;;;;;;;;;;;;5095015;28;19962;-72
2023/03/11 10:13:02;;;;;;;;;;;;;;;;;;5095219;28;19959;-75
2023/03/11 10:15:28;;;;;;;;;;;;;;;;;;5094856;28;19993;-73
2023/03/11 10:17:54;;;;;;;;;;;;;;;;;;5095407;28;19998;-71
2023/03/11 10:20:20;;;;;;;;;;;;;;;;;;5094867;28;19955;-71
2023/03/11 10:22:46;;;;;;;;;;;;;;;;;;5095325;28;20391;-72
2023/03/11 10:25:12;;;;;;;;;;;;;;;;;;5095477;28;20021;-72
2023/03/11 10:27:38;;;;;;;;;;;;;;;;;;5094615;28;19981;-74
2023/03/11 10:30:04;;;;;;;;;;;;;;;;;;5094661;28;19995;-74
2023/03/11 10:32:30;;;;;;;;;;;;;;;;;;5095034;28;20478;-73
2023/03/11 10:34:55;;;;;;;;;;;;;;;;;;5094747;28;19955;-75
2023/03/11 10:37:21;;;;;;;;;;;;;;;;;;5094464;28;20303;-73
2023/03/11 10:39:48;;;;;;;;;;;;;;;;;;5094269;28;19955;-77
2023/03/11 10:42:14;;;;;;;;;;;;;;;;;;5094756;28;19955;-72
2023/03/11 10:44:40;;;;;;;;;;;;;;;;;;5094351;28;20469;-74
2023/03/11 10:47:06;;;;;;;;;;;;;;;;;;5095058;28;19955;-75
2023/03/11 10:49:32;;;;;;;;;;;;;;;;;;5094597;28;20115;-77
2023/03/11 10:51:58;;;;;;;;;;;;;;;;;;5093966;28;19961;-75
2023/03/11 10:54:25;;;;;;;;;;;;;;;;;;5080864;28;19964;-72
2023/03/11 10:56:51;;;;;;;;;;;;;;;;;;5077300;28;19960;-75
2023/03/11 10:59:17;;;;;;;;;;;;;;;;;;5089647;28;20054;-75
2023/03/11 11:01:42;;;;;;;;;;;;;;;;;;5082610;28;20335;-77
2023/03/11 11:04:08;;;;;;;;;;;;;;;;;;5074664;28;19975;-74
2023/03/11 11:06:34;;;;;;;;;;;;;;;;;;5084165;28;19963;-77
2023/03/11 11:09:00;;;;;;;;;;;;;;;;;;5092787;28;19963;-76
2023/03/11 11:11:26;;;;;;;;;;;;;;;;;;5093539;28;19956;-77
2023/03/11 11:13:52;;;;;;;;;;;;;;;;;;5092744;28;19973;-78
2023/03/11 11:16:19;;;;;;;;;;;;;;;;;;5093619;28;19992;-78
2023/03/11 11:18:45;;;;;;;;;;;;;;;;;;5093500;28;20417;-78
2023/03/11 11:21:11;;;;;;;;;;;;;;;;;;5093531;28;20004;-77
2023/03/11 11:23:37;;;;;;;;;;;;;;;;;;5093328;28;19974;-77
2023/03/11 11:26:03;;;;;;;;;;;;;;;;;;5091863;28;19955;-76
2023/03/11 11:28:29;;;;;;;;;;;;;;;;;;5092877;28;19954;-77
2023/03/11 11:30:55;;;;;;;;;;;;;;;;;;5093008;28;19945;-75
2023/03/11 11:33:21;;;;;;;;;;;;;;;;;;5092970;28;20434;-77
2023/03/11 11:35:47;;;;;;;;;;;;;;;;;;5092918;28;19948;-76
2023/03/11 11:38:13;;;;;;;;;;;;;;;;;;5092872;28;20068;-78
2023/03/11 11:40:39;;;;;;;;;;;;;;;;;;5102991;28;19994;-77
2023/03/11 11:43:05;;;;;;;;;;;;;;;;;;5113891;28;19975;-76
2023/03/11 11:45:31;;;;;;;;;;;;;;;;;;5113949;28;19952;-77
2023/03/11 11:47:57;;;;;;;;;;;;;;;;;;5114178;28;20034;-75
2023/03/11 11:50:23;;;;;;;;;;;;;;;;;;5113918;28;20384;-76
2023/03/11 11:52:48;;;;;;;;;;;;;;;;;;5113922;28;19954;-76
2023/03/11 11:55:15;;;;;;;;;;;;;;;;;;5114373;28;20310;-76
2023/03/11 11:57:41;;;;;;;;;;;;;;;;;;5114141;28;20321;-75
2023/03/11 12:00:08;;;;;;;;;;;;;;;;;;5114083;28;19953;-76
2023/03/11 12:02:34;;;;;;;;;;;;;;;;;;5114171;28;20434;-77
2023/03/11 12:05:00;;;;;;;;;;;;;;;;;;5099540;28;19955;-75
2023/03/11 12:07:26;;;;;;;;;;;;;;;;;;5118129;28;19949;-75
2023/03/11 12:09:52;;;;;;;;;;;;;;;;;;5117776;28;20527;-76
2023/03/11 12:12:17;;;;;;;;;;;;;;;;;;5117672;28;19952;-74
2023/03/11 12:14:43;;;;;;;;;;;;;;;;;;5099228;28;19978;-76
2023/03/11 12:17:09;;;;;;;;;;;;;;;;;;5118178;28;20296;-75
2023/03/11 12:19:35;;;;;;;;;;;;;;;;;;5117836;28;19949;-75
2023/03/11 12:22:01;;;;;;;;;;;;;;;;;;5117521;28;20117;-75
2023/03/11 12:24:27;;;;;;;;;;;;;;;;;;5117489;28;19955;-75
2023/03/11 12:26:53;;;;;;;;;;;;;;;;;;5117693;28;19971;-75
2023/03/11 12:29:19;;;;;;;;;;;;;;;;;;5117378;28;19940;-76
2023/03/11 12:31:45;;;;;;;;;;;;;;;;;;5117320;28;19945;-75
2023/03/11 12:34:16;;;;;;;;;;;;;;;;;;5098900;28;19978;-75
2023/03/11 12:36:42;;;;;;;;;;;;;;;;;;5117599;28;19945;-75
2023/03/11 12:39:09;;;;;;;;;;;;;;;;;;5117212;28;20031;-76
2023/03/11 12:41:44;;;;;;;;;;;;;;;;;;5098535;28;20360;-75
2023/03/11 12:44:12;;;;;;;;;;;;;;;;;;5117416;28;20362;-74
2023/03/11 12:46:38;;;;;;;;;;;;;;;;;;5117012;28;19943;-75
2023/03/11 12:49:05;;;;;;;;;;;;;;;;;;5116973;28;20022;-74
2023/03/11 12:51:36;;;;;;;;;;;;;;;;;;5116994;28;19969;-75
2023/03/11 12:54:02;;;;;;;;;;;;;;;;;;5117393;28;20309;-74
2023/03/11 12:56:28;;;;;;;;;;;;;;;;;;5116877;28;19954;-74
2023/03/11 12:58:54;;;;;;;;;;;;;;;;;;5116847;28;19952;-75
2023/03/11 13:01:19;;;;;;;;;;;;;;;;;;5117319;28;20356;-75
2023/03/11 13:03:45;;;;;;;;;;;;;;;;;;5116980;28;19997;-75
2023/03/11 13:06:11;;;;;;;;;;;;;;;;;;5117229;28;19969;-74
2023/03/11 13:08:37;;;;;;;;;;;;;;;;;;5116615;28;19944;-75
2023/03/11 13:11:03;;;;;;;;;;;;;;;;;;5116882;28;19945;-75
2023/03/11 13:13:32;;;;;;;;;;;;;;;;;;5116248;28;19947;-75
2023/03/11 13:15:58;;;;;;;;;;;;;;;;;;5116472;28;19939;-73
2023/03/11 13:18:24;;;;;;;;;;;;;;;;;;5116450;28;19949;-74
2023/03/11 13:20:50;;;;;;;;;;;;;;;;;;5116959;28;19948;-74
2023/03/11 13:23:16;;;;;;;;;;;;;;;;;;5116365;28;19942;-73
2023/03/11 13:25:42;;;;;;;;;;;;;;;;;;5116583;28;19976;-76
2023/03/11 13:28:08;;;;;;;;;;;;;;;;;;5116242;28;20320;-73
2023/03/11 13:30:33;;;;;;;;;;;;;;;;;;5116230;28;20032;-75
2023/03/11 13:32:59;;;;;;;;;;;;;;;;;;5116156;28;19939;-74
2023/03/11 13:35:26;;;;;;;;;;;;;;;;;;5116581;28;20428;-73
2023/03/11 13:37:52;;;;;;;;;;;;;;;;;;5116352;28;19942;-74
2023/03/11 13:40:18;;;;;;;;;;;;;;;;;;5115793;28;19983;-72
2023/03/11 13:42:44;;;;;;;;;;;;;;;;;;5116521;28;20538;-74
2023/03/11 13:45:10;;;;;;;;;;;;;;;;;;5116208;28;20395;-74
2023/03/11 13:47:36;;;;;;;;;;;;;;;;;;5115825;28;20030;-72
2023/03/11 13:50:04;;;;;;;;;;;;;;;;;;5116064;28;19947;-75
2023/03/11 13:52:30;;;;;;;;;;;;;;;;;;5116131;28;19978;-75
2023/03/11 13:54:56;;;;;;;;;;;;;;;;;;5116196;28;20009;-76
2023/03/11 13:57:22;;;;;;;;;;;;;;;;;;5115964;28;20315;-76
2023/03/11 13:59:48;;;;;;;;;;;;;;;;;;5116227;28;19953;-74
2023/03/11 14:02:14;;;;;;;;;;;;;;;;;;5115925;28;20004;-72
2023/03/11 14:04:39;;;;;;;;;;;;;;;;;;5115800;28;20419;-75
2023/03/11 14:07:05;;;;;;;;;;;;;;;;;;5115418;28;19944;-74
2023/03/11 14:09:31;;;;;;;;;;;;;;;;;;5115482;28;20316;-73
2023/03/11 14:11:57;;;;;;;;;;;;;;;;;;5115373;28;19987;-76
2023/03/11 14:14:23;;;;;;;;;;;;;;;;;;5115451;28;20043;-76
2023/03/11 14:16:49;;;;;;;;;;;;;;;;;;5115590;28;19947;-75
2023/03/11 14:19:15;;;;;;;;;;;;;;;;;;5115211;28;19936;-75
2023/03/11 14:21:41;;;;;;;;;;;;;;;;;;5115495;28;19947;-73
2023/03/11 14:24:07;;;;;;;;;;;;;;;;;;5115117;28;19948;-72
2023/03/11 14:26:33;;;;;;;;;;;;;;;;;;5114832;28;19951;-76
2023/03/11 14:28:59;;;;;;;;;;;;;;;;;;5115364;28;19936;-73
2023/03/11 14:31:25;;;;;;;;;;;;;;;;;;5096752;28;20326;-75
2023/03/11 14:33:51;;;;;;;;;;;;;;;;;;5114924;28;20421;-76
2023/03/11 14:36:17;;;;;;;;;;;;;;;;;;5114911;28;19935;-76
2023/03/11 14:38:43;;;;;;;;;;;;;;;;;;5115127;28;20025;-76
2023/03/11 14:41:09;;;;;;;;;;;;;;;;;;5114659;28;20023;-74
2023/03/11 14:43:35;;;;;;;;;;;;;;;;;;5115359;28;19949;-73
2023/03/11 14:46:01;;;;;;;;;;;;;;;;;;5115065;28;19938;-74
2023/03/11 14:48:27;;;;;;;;;;;;;;;;;;5114714;28;19949;-73
2023/03/11 14:50:53;;;;;;;;;;;;;;;;;;5115216;28;20401;-74
2023/03/11 14:53:19;;;;;;;;;;;;;;;;;;5114809;28;19945;-74
2023/03/11 14:55:45;;;;;;;;;;;;;;;;;;5114645;28;19959;-77
2023/03/11 14:58:11;;;;;;;;;;;;;;;;;;5114521;28;19941;-73
2023/03/11 15:00:37;;;;;;;;;;;;;;;;;;5114806;28;19948;-74
2023/03/11 15:03:02;;;;;;;;;;;;;;;;;;5114464;28;19953;-74
2023/03/11 15:05:28;;;;;;;;;;;;;;;;;;5114435;28;19986;-72
2023/03/11 15:07:54;;;;;;;;;;;;;;;;;;5114735;28;19944;-74
2023/03/11 15:10:20;;;;;;;;;;;;;;;;;;5114373;28;19943;-75
2023/03/11 15:12:48;;;;;;;;;;;;;;;;;;5114909;28;19946;-75
2023/03/11 15:15:14;;;;;;;;;;;;;;;;;;5114161;28;20027;-73
2023/03/11 15:17:40;;;;;;;;;;;;;;;;;;5114302;28;19942;-75
2023/03/11 15:20:07;;;;;;;;;;;;;;;;;;5114491;28;20039;-74
2023/03/11 15:22:33;;;;;;;;;;;;;;;;;;5114559;28;19950;-73
2023/03/11 15:24:59;;;;;;;;;;;;;;;;;;5114178;28;19949;-74
2023/03/11 15:27:25;;;;;;;;;;;;;;;;;;5114684;28;19954;-73
2023/03/11 15:29:51;;;;;;;;;;;;;;;;;;5114131;28;19956;-73
2023/03/11 15:32:17;;;;;;;;;;;;;;;;;;5114138;28;19993;-72
2023/03/11 15:34:43;;;;;;;;;;;;;;;;;;5114297;28;20063;-75
2023/03/11 15:37:09;;;;;;;;;;;;;;;;;;5114121;28;19952;-76
2023/03/11 15:39:35;;;;;;;;;;;;;;;;;;5118122;28;19963;-75
2023/03/11 15:42:01;;;;;;;;;;;;;;;;;;5118624;28;20425;-75
2023/03/11 15:44:27;;;;;;;;;;;;;;;;;;5118247;28;19950;-75
2023/03/11 15:46:52;;;;;;;;;;;;;;;;;;5118518;28;19944;-75
2023/03/11 15:49:19;;;;;;;;;;;;;;;;;;5118212;28;19950;-74
2023/03/11 15:51:44;;;;;;;;;;;;;;;;;;5118135;28;19988;-74
2023/03/11 15:54:10;;;;;;;;;;;;;;;;;;5118028;28;20034;-74
2023/03/11 15:56:36;;;;;;;;;;;;;;;;;;5118307;28;20304;-74
2023/03/11 15:59:02;;;;;;;;;;;;;;;;;;5118040;28;19958;-75
2023/03/11 16:01:28;;;;;;;;;;;;;;;;;;5117955;28;19950;-75
2023/03/11 16:03:54;;;;;;;;;;;;;;;;;;5118148;28;19955;-76
2023/03/11 16:06:23;;;;;;;;;;;;;;;;;;5117864;28;19951;-74
2023/03/11 16:08:49;;;;;;;;;;;;;;;;;;5099780;28;20046;-72
2023/03/11 16:11:14;;;;;;;;;;;;;;;;;;5118045;28;19986;-74
2023/03/11 16:13:40;;;;;;;;;;;;;;;;;;5117560;28;20009;-75
2023/03/11 16:16:06;;;;;;;;;;;;;;;;;;5117710;28;19958;-75
2023/03/11 16:18:34;;;;;;;;;;;;;;;;;;5117638;28;20036;-75
2023/03/11 16:21:01;;;;;;;;;;;;;;;;;;5117849;28;20000;-72
2023/03/11 16:23:26;;;;;;;;;;;;;;;;;;5117544;28;19951;-73
2023/03/11 16:25:52;;;;;;;;;;;;;;;;;;5099180;28;20328;-72
2023/03/11 16:28:18;;;;;;;;;;;;;;;;;;5117755;28;19954;-75
2023/03/11 16:30:45;;;;;;;;;;;;;;;;;;5117443;28;19953;-72
2023/03/11 16:33:11;;;;;;;;;;;;;;;;;;5117369;28;20083;-73
2023/03/11 16:35:37;;;;;;;;;;;;;;;;;;5117548;28;20459;-76
2023/03/11 16:38:03;;;;;;;;;;;;;;;;;;5117553;28;20087;-75